sensor_id;sensor_type;location;lat;lon;timestamp;P1;durP1;ratioP1;P2;durP2;ratioP2
75386;SDS011;63966;47.914;22.266;2023-04-25T00:02:40;19.33;;;13.00;;
75386;SDS011;63966;47.914;22.266;2023-04-25T00:05:44;18.48;;;12.57;;
75386;SDS011;63966;47.914;22.266;2023-04-25T00:08:47;18.65;;;12.57;;
75386;SDS011;63966;47.914;22.266;2023-04-25T00:11:51;18.35;;;12.30;;
75386;SDS011;63966;47.914;22.266;2023-04-25T00:14:54;17.55;;;12.10;;
75386;SDS011;63966;47.914;22.266;2023-04-25T00:17:59;19.70;;;12.70;;
75386;SDS011;63966;47.914;22.266;2023-04-25T00:21:02;18.30;;;12.10;;
75386;SDS011;63966;47.914;22.266;2023-04-25T00:24:08;18.85;;;12.80;;
75386;SDS011;63966;47.914;22.266;2023-04-25T00:27:12;19.50;;;12.73;;
75386;SDS011;63966;47.914;22.266;2023-04-25T00:30:16;20.10;;;12.98;;
75386;SDS011;63966;47.914;22.266;2023-04-25T00:33:20;19.60;;;12.93;;
75386;SDS011;63966;47.914;22.266;2023-04-25T00:36:24;21.48;;;13.48;;
75386;SDS011;63966;47.914;22.266;2023-04-25T00:39:28;21.13;;;13.60;;
75386;SDS011;63966;47.914;22.266;2023-04-25T00:42:32;21.13;;;14.68;;
75386;SDS011;63966;47.914;22.266;2023-04-25T00:45:36;19.95;;;13.80;;
75386;SDS011;63966;47.914;22.266;2023-04-25T00:48:41;20.10;;;13.67;;
75386;SDS011;63966;47.914;22.266;2023-04-25T00:51:45;23.45;;;13.95;;
75386;SDS011;63966;47.914;22.266;2023-04-25T00:54:49;22.85;;;14.00;;
75386;SDS011;63966;47.914;22.266;2023-04-25T00:57:52;20.80;;;13.90;;
75386;SDS011;63966;47.914;22.266;2023-04-25T01:00:56;22.83;;;14.55;;
75386;SDS011;63966;47.914;22.266;2023-04-25T01:04:01;22.90;;;14.50;;
75386;SDS011;63966;47.914;22.266;2023-04-25T01:07:04;22.75;;;14.27;;
75386;SDS011;63966;47.914;22.266;2023-04-25T01:10:09;21.45;;;14.02;;
75386;SDS011;63966;47.914;22.266;2023-04-25T01:13:13;20.45;;;13.63;;
75386;SDS011;63966;47.914;22.266;2023-04-25T01:16:17;21.33;;;14.18;;
75386;SDS011;63966;47.914;22.266;2023-04-25T01:19:20;21.23;;;13.60;;
75386;SDS011;63966;47.914;22.266;2023-04-25T01:22:24;20.73;;;13.70;;
75386;SDS011;63966;47.914;22.266;2023-04-25T01:25:28;21.58;;;13.10;;
75386;SDS011;63966;47.914;22.266;2023-04-25T01:28:35;19.42;;;13.65;;
75386;SDS011;63966;47.914;22.266;2023-04-25T01:31:39;17.30;;;11.98;;
75386;SDS011;63966;47.914;22.266;2023-04-25T01:34:43;21.23;;;13.97;;
75386;SDS011;63966;47.914;22.266;2023-04-25T01:37:46;20.25;;;13.48;;
75386;SDS011;63966;47.914;22.266;2023-04-25T01:40:51;23.00;;;13.25;;
75386;SDS011;63966;47.914;22.266;2023-04-25T01:43:56;20.77;;;13.63;;
75386;SDS011;63966;47.914;22.266;2023-04-25T01:47:00;22.05;;;14.07;;
75386;SDS011;63966;47.914;22.266;2023-04-25T01:50:04;24.03;;;14.17;;
75386;SDS011;63966;47.914;22.266;2023-04-25T01:53:09;21.60;;;13.55;;
75386;SDS011;63966;47.914;22.266;2023-04-25T01:56:17;21.65;;;13.38;;
75386;SDS011;63966;47.914;22.266;2023-04-25T01:59:21;22.25;;;13.63;;
75386;SDS011;63966;47.914;22.266;2023-04-25T02:02:39;22.92;;;14.35;;
75386;SDS011;63966;47.914;22.266;2023-04-25T02:05:54;20.27;;;13.43;;
75386;SDS011;63966;47.914;22.266;2023-04-25T02:08:59;19.55;;;13.45;;
75386;SDS011;63966;47.914;22.266;2023-04-25T02:12:02;19.83;;;12.80;;
75386;SDS011;63966;47.914;22.266;2023-04-25T02:15:23;23.35;;;14.25;;
75386;SDS011;63966;47.914;22.266;2023-04-25T02:18:32;21.55;;;14.50;;
75386;SDS011;63966;47.914;22.266;2023-04-25T02:21:35;21.30;;;13.80;;
75386;SDS011;63966;47.914;22.266;2023-04-25T02:24:39;21.00;;;13.90;;
75386;SDS011;63966;47.914;22.266;2023-04-25T02:27:42;20.20;;;13.80;;
75386;SDS011;63966;47.914;22.266;2023-04-25T02:30:46;20.02;;;13.02;;
75386;SDS011;63966;47.914;22.266;2023-04-25T02:33:49;20.33;;;13.40;;
75386;SDS011;63966;47.914;22.266;2023-04-25T02:36:54;23.53;;;12.90;;
75386;SDS011;63966;47.914;22.266;2023-04-25T02:39:57;20.52;;;13.38;;
75386;SDS011;63966;47.914;22.266;2023-04-25T02:43:01;19.60;;;13.50;;
75386;SDS011;63966;47.914;22.266;2023-04-25T02:46:04;21.98;;;13.20;;
75386;SDS011;63966;47.914;22.266;2023-04-25T02:49:08;21.85;;;14.05;;
75386;SDS011;63966;47.914;22.266;2023-04-25T02:52:11;20.57;;;13.50;;
75386;SDS011;63966;47.914;22.266;2023-04-25T02:55:16;21.00;;;14.18;;
75386;SDS011;63966;47.914;22.266;2023-04-25T02:58:20;20.58;;;13.45;;
75386;SDS011;63966;47.914;22.266;2023-04-25T03:01:26;20.08;;;13.77;;
75386;SDS011;63966;47.914;22.266;2023-04-25T03:04:30;21.25;;;13.95;;
75386;SDS011;63966;47.914;22.266;2023-04-25T03:07:35;23.03;;;14.23;;
75386;SDS011;63966;47.914;22.266;2023-04-25T03:10:39;23.55;;;14.88;;
75386;SDS011;63966;47.914;22.266;2023-04-25T03:13:44;23.17;;;14.85;;
75386;SDS011;63966;47.914;22.266;2023-04-25T03:16:48;24.25;;;15.13;;
75386;SDS011;63966;47.914;22.266;2023-04-25T03:19:52;21.58;;;15.35;;
75386;SDS011;63966;47.914;22.266;2023-04-25T03:22:56;22.77;;;14.53;;
75386;SDS011;63966;47.914;22.266;2023-04-25T03:25:59;24.15;;;15.18;;
75386;SDS011;63966;47.914;22.266;2023-04-25T03:29:03;23.95;;;15.85;;
75386;SDS011;63966;47.914;22.266;2023-04-25T03:32:07;21.17;;;14.80;;
75386;SDS011;63966;47.914;22.266;2023-04-25T03:35:11;22.42;;;14.98;;
75386;SDS011;63966;47.914;22.266;2023-04-25T03:38:15;23.53;;;14.90;;
75386;SDS011;63966;47.914;22.266;2023-04-25T03:41:19;22.73;;;13.93;;
75386;SDS011;63966;47.914;22.266;2023-04-25T03:44:28;22.73;;;14.77;;
75386;SDS011;63966;47.914;22.266;2023-04-25T03:47:32;23.08;;;15.63;;
75386;SDS011;63966;47.914;22.266;2023-04-25T03:50:36;22.98;;;15.25;;
75386;SDS011;63966;47.914;22.266;2023-04-25T03:53:40;23.73;;;15.20;;
75386;SDS011;63966;47.914;22.266;2023-04-25T03:56:49;26.42;;;15.82;;
75386;SDS011;63966;47.914;22.266;2023-04-25T03:59:56;26.38;;;16.67;;
75386;SDS011;63966;47.914;22.266;2023-04-25T04:03:01;24.08;;;15.00;;
75386;SDS011;63966;47.914;22.266;2023-04-25T04:06:05;25.52;;;15.02;;
75386;SDS011;63966;47.914;22.266;2023-04-25T04:09:19;21.90;;;14.27;;
75386;SDS011;63966;47.914;22.266;2023-04-25T04:12:23;26.98;;;15.30;;
75386;SDS011;63966;47.914;22.266;2023-04-25T04:15:27;24.67;;;15.23;;
75386;SDS011;63966;47.914;22.266;2023-04-25T04:18:30;23.38;;;14.82;;
75386;SDS011;63966;47.914;22.266;2023-04-25T04:21:36;26.23;;;15.48;;
75386;SDS011;63966;47.914;22.266;2023-04-25T04:24:40;23.43;;;14.63;;
75386;SDS011;63966;47.914;22.266;2023-04-25T04:27:48;22.80;;;14.15;;
75386;SDS011;63966;47.914;22.266;2023-04-25T04:31:02;23.77;;;14.95;;
75386;SDS011;63966;47.914;22.266;2023-04-25T04:34:06;24.17;;;14.77;;
75386;SDS011;63966;47.914;22.266;2023-04-25T04:37:10;24.55;;;15.48;;
75386;SDS011;63966;47.914;22.266;2023-04-25T04:40:16;22.23;;;14.50;;
75386;SDS011;63966;47.914;22.266;2023-04-25T04:43:27;24.10;;;14.68;;
75386;SDS011;63966;47.914;22.266;2023-04-25T04:46:55;23.02;;;15.38;;
75386;SDS011;63966;47.914;22.266;2023-04-25T04:50:27;21.55;;;13.70;;
75386;SDS011;63966;47.914;22.266;2023-04-25T04:53:48;23.35;;;13.73;;
75386;SDS011;63966;47.914;22.266;2023-04-25T04:57:10;21.40;;;14.57;;
75386;SDS011;63966;47.914;22.266;2023-04-25T05:00:32;20.65;;;13.38;;
75386;SDS011;63966;47.914;22.266;2023-04-25T05:03:42;20.10;;;13.20;;
75386;SDS011;63966;47.914;22.266;2023-04-25T05:07:04;18.45;;;12.52;;
75386;SDS011;63966;47.914;22.266;2023-04-25T05:10:27;17.90;;;12.50;;
75386;SDS011;63966;47.914;22.266;2023-04-25T05:13:40;20.60;;;12.60;;
75386;SDS011;63966;47.914;22.266;2023-04-25T05:17:03;17.98;;;12.20;;
75386;SDS011;63966;47.914;22.266;2023-04-25T05:20:30;19.42;;;12.10;;
75386;SDS011;63966;47.914;22.266;2023-04-25T05:23:34;19.48;;;13.32;;
75386;SDS011;63966;47.914;22.266;2023-04-25T05:26:58;19.35;;;12.73;;
75386;SDS011;63966;47.914;22.266;2023-04-25T05:30:33;17.90;;;12.03;;
75386;SDS011;63966;47.914;22.266;2023-04-25T05:33:52;18.83;;;11.35;;
75386;SDS011;63966;47.914;22.266;2023-04-25T05:36:57;21.92;;;13.35;;
75386;SDS011;63966;47.914;22.266;2023-04-25T05:40:01;17.58;;;12.35;;
75386;SDS011;63966;47.914;22.266;2023-04-25T05:43:39;19.23;;;13.10;;
75386;SDS011;63966;47.914;22.266;2023-04-25T05:47:26;19.93;;;13.13;;
75386;SDS011;63966;47.914;22.266;2023-04-25T05:50:50;19.77;;;12.60;;
75386;SDS011;63966;47.914;22.266;2023-04-25T05:54:10;19.33;;;12.25;;
75386;SDS011;63966;47.914;22.266;2023-04-25T05:57:19;17.08;;;11.35;;
75386;SDS011;63966;47.914;22.266;2023-04-25T07:53:06;11.45;;;7.90;;
75386;SDS011;63966;47.914;22.266;2023-04-25T07:56:20;11.07;;;7.33;;
75386;SDS011;63966;47.914;22.266;2023-04-25T07:59:26;11.93;;;6.72;;
75386;SDS011;63966;47.914;22.266;2023-04-25T08:02:33;16.38;;;7.97;;
75386;SDS011;63966;47.914;22.266;2023-04-25T08:05:37;12.65;;;7.20;;
75386;SDS011;63966;47.914;22.266;2023-04-25T08:08:41;10.73;;;7.65;;
75386;SDS011;63966;47.914;22.266;2023-04-25T08:11:49;13.33;;;8.27;;
75386;SDS011;63966;47.914;22.266;2023-04-25T08:14:57;14.38;;;8.73;;
75386;SDS011;63966;47.914;22.266;2023-04-25T08:18:07;11.95;;;8.15;;
75386;SDS011;63966;47.914;22.266;2023-04-25T08:21:10;11.60;;;8.10;;
75386;SDS011;63966;47.914;22.266;2023-04-25T08:24:14;12.20;;;8.50;;
75386;SDS011;63966;47.914;22.266;2023-04-25T08:27:18;12.03;;;8.10;;
75386;SDS011;63966;47.914;22.266;2023-04-25T08:30:23;12.50;;;8.57;;
75386;SDS011;63966;47.914;22.266;2023-04-25T08:33:27;12.95;;;8.55;;
75386;SDS011;63966;47.914;22.266;2023-04-25T08:36:49;12.30;;;8.55;;
75386;SDS011;63966;47.914;22.266;2023-04-25T08:39:58;13.88;;;9.30;;
75386;SDS011;63966;47.914;22.266;2023-04-25T08:43:20;11.90;;;8.80;;
75386;SDS011;63966;47.914;22.266;2023-04-25T08:46:25;13.18;;;8.68;;
75386;SDS011;63966;47.914;22.266;2023-04-25T08:49:51;12.52;;;9.18;;
75386;SDS011;63966;47.914;22.266;2023-04-25T08:52:57;12.25;;;8.98;;
75386;SDS011;63966;47.914;22.266;2023-04-25T08:56:06;12.80;;;9.30;;
75386;SDS011;63966;47.914;22.266;2023-04-25T08:59:11;12.07;;;8.93;;
75386;SDS011;63966;47.914;22.266;2023-04-25T09:02:17;11.68;;;8.50;;
75386;SDS011;63966;47.914;22.266;2023-04-25T09:05:25;12.27;;;8.32;;
75386;SDS011;63966;47.914;22.266;2023-04-25T09:08:31;12.75;;;8.77;;
75386;SDS011;63966;47.914;22.266;2023-04-25T09:11:35;12.95;;;9.35;;
75386;SDS011;63966;47.914;22.266;2023-04-25T09:14:43;12.23;;;8.63;;
75386;SDS011;63966;47.914;22.266;2023-04-25T09:18:33;13.85;;;9.23;;
75386;SDS011;63966;47.914;22.266;2023-04-25T09:21:38;14.07;;;8.98;;
75386;SDS011;63966;47.914;22.266;2023-04-25T09:24:42;13.43;;;9.07;;
75386;SDS011;63966;47.914;22.266;2023-04-25T09:27:49;12.23;;;8.82;;
75386;SDS011;63966;47.914;22.266;2023-04-25T09:31:00;11.77;;;9.00;;
75386;SDS011;63966;47.914;22.266;2023-04-25T09:34:11;13.23;;;8.40;;
75386;SDS011;63966;47.914;22.266;2023-04-25T09:37:23;12.68;;;9.32;;
75386;SDS011;63966;47.914;22.266;2023-04-25T09:40:48;13.25;;;9.02;;
75386;SDS011;63966;47.914;22.266;2023-04-25T09:44:23;11.55;;;8.68;;
75386;SDS011;63966;47.914;22.266;2023-04-25T09:47:28;10.73;;;8.37;;
75386;SDS011;63966;47.914;22.266;2023-04-25T09:50:32;15.93;;;9.60;;
75386;SDS011;63966;47.914;22.266;2023-04-25T09:53:44;12.50;;;9.10;;
75386;SDS011;63966;47.914;22.266;2023-04-25T09:57:15;14.25;;;9.52;;
75386;SDS011;63966;47.914;22.266;2023-04-25T10:00:20;14.95;;;9.25;;
75386;SDS011;63966;47.914;22.266;2023-04-25T10:03:25;11.93;;;9.17;;
75386;SDS011;63966;47.914;22.266;2023-04-25T10:06:48;11.98;;;8.60;;
75386;SDS011;63966;47.914;22.266;2023-04-25T10:09:54;11.70;;;8.50;;
75386;SDS011;63966;47.914;22.266;2023-04-25T10:13:07;11.27;;;8.13;;
75386;SDS011;63966;47.914;22.266;2023-04-25T10:16:11;11.25;;;8.25;;
75386;SDS011;63966;47.914;22.266;2023-04-25T10:19:16;11.60;;;7.70;;
75386;SDS011;63966;47.914;22.266;2023-04-25T10:22:37;10.38;;;7.72;;
75386;SDS011;63966;47.914;22.266;2023-04-25T10:25:49;9.98;;;7.35;;
75386;SDS011;63966;47.914;22.266;2023-04-25T10:28:57;13.70;;;7.90;;
75386;SDS011;63966;47.914;22.266;2023-04-25T10:32:03;10.80;;;7.38;;
75386;SDS011;63966;47.914;22.266;2023-04-25T10:35:26;7.87;;;4.90;;
75386;SDS011;63966;47.914;22.266;2023-04-25T10:38:31;6.90;;;2.80;;
75386;SDS011;63966;47.914;22.266;2023-04-25T10:41:47;7.03;;;2.88;;
75386;SDS011;63966;47.914;22.266;2023-04-25T10:45:10;7.88;;;2.72;;
75386;SDS011;63966;47.914;22.266;2023-04-25T10:48:29;9.05;;;3.80;;
75386;SDS011;63966;47.914;22.266;2023-04-25T10:51:36;5.07;;;2.50;;
75386;SDS011;63966;47.914;22.266;2023-04-25T10:54:56;4.82;;;2.20;;
75386;SDS011;63966;47.914;22.266;2023-04-25T10:58:00;5.05;;;2.00;;
75386;SDS011;63966;47.914;22.266;2023-04-25T11:01:04;4.88;;;2.13;;
75386;SDS011;63966;47.914;22.266;2023-04-25T11:07:34;3.40;;;1.60;;
75386;SDS011;63966;47.914;22.266;2023-04-25T11:10:51;5.25;;;1.85;;
75386;SDS011;63966;47.914;22.266;2023-04-25T11:13:54;2.97;;;1.70;;
75386;SDS011;63966;47.914;22.266;2023-04-25T11:16:58;3.63;;;1.83;;
75386;SDS011;63966;47.914;22.266;2023-04-25T11:20:04;3.97;;;2.38;;
75386;SDS011;63966;47.914;22.266;2023-04-25T11:23:11;5.17;;;2.00;;
75386;SDS011;63966;47.914;22.266;2023-04-25T11:26:15;4.35;;;1.88;;
75386;SDS011;63966;47.914;22.266;2023-04-25T11:29:21;3.15;;;1.80;;
75386;SDS011;63966;47.914;22.266;2023-04-25T11:32:26;4.03;;;2.05;;
75386;SDS011;63966;47.914;22.266;2023-04-25T11:35:30;4.68;;;2.30;;
75386;SDS011;63966;47.914;22.266;2023-04-25T11:38:35;3.33;;;1.87;;
75386;SDS011;63966;47.914;22.266;2023-04-25T11:41:42;4.05;;;1.88;;
75386;SDS011;63966;47.914;22.266;2023-04-25T11:44:47;4.25;;;2.03;;
75386;SDS011;63966;47.914;22.266;2023-04-25T11:47:50;6.78;;;2.65;;
75386;SDS011;63966;47.914;22.266;2023-04-25T11:50:55;5.85;;;2.42;;
75386;SDS011;63966;47.914;22.266;2023-04-25T11:53:58;4.90;;;2.50;;
75386;SDS011;63966;47.914;22.266;2023-04-25T11:57:02;6.63;;;2.78;;
75386;SDS011;63966;47.914;22.266;2023-04-25T12:00:10;5.43;;;2.70;;
75386;SDS011;63966;47.914;22.266;2023-04-25T12:03:19;7.05;;;3.05;;
75386;SDS011;63966;47.914;22.266;2023-04-25T12:06:29;6.82;;;3.00;;
75386;SDS011;63966;47.914;22.266;2023-04-25T12:09:34;5.63;;;2.03;;
75386;SDS011;63966;47.914;22.266;2023-04-25T12:12:37;5.95;;;2.85;;
75386;SDS011;63966;47.914;22.266;2023-04-25T12:15:45;7.82;;;4.25;;
75386;SDS011;63966;47.914;22.266;2023-04-25T12:18:51;9.70;;;4.55;;
75386;SDS011;63966;47.914;22.266;2023-04-25T12:21:56;16.15;;;7.63;;
75386;SDS011;63966;47.914;22.266;2023-04-25T12:25:00;7.80;;;2.80;;
75386;SDS011;63966;47.914;22.266;2023-04-25T12:31:22;6.32;;;3.38;;
75386;SDS011;63966;47.914;22.266;2023-04-25T12:34:25;7.15;;;3.33;;
75386;SDS011;63966;47.914;22.266;2023-04-25T12:37:29;8.45;;;3.58;;
75386;SDS011;63966;47.914;22.266;2023-04-25T12:40:33;5.40;;;2.57;;
75386;SDS011;63966;47.914;22.266;2023-04-25T12:43:36;5.20;;;2.30;;
75386;SDS011;63966;47.914;22.266;2023-04-25T12:46:40;4.97;;;2.20;;
75386;SDS011;63966;47.914;22.266;2023-04-25T12:49:44;5.82;;;2.15;;
75386;SDS011;63966;47.914;22.266;2023-04-25T12:52:47;7.10;;;3.80;;
75386;SDS011;63966;47.914;22.266;2023-04-25T12:55:51;6.37;;;2.40;;
75386;SDS011;63966;47.914;22.266;2023-04-25T12:58:54;6.65;;;2.28;;
75386;SDS011;63966;47.914;22.266;2023-04-25T13:01:58;4.28;;;1.90;;
75386;SDS011;63966;47.914;22.266;2023-04-25T13:05:02;5.45;;;2.15;;
75386;SDS011;63966;47.914;22.266;2023-04-25T13:08:05;6.57;;;2.88;;
75386;SDS011;63966;47.914;22.266;2023-04-25T13:11:09;4.57;;;2.10;;
75386;SDS011;63966;47.914;22.266;2023-04-25T13:14:13;4.97;;;2.13;;
75386;SDS011;63966;47.914;22.266;2023-04-25T13:17:17;3.53;;;1.75;;
75386;SDS011;63966;47.914;22.266;2023-04-25T13:20:21;3.55;;;1.95;;
75386;SDS011;63966;47.914;22.266;2023-04-25T13:23:25;4.10;;;2.15;;
75386;SDS011;63966;47.914;22.266;2023-04-25T13:26:30;4.00;;;1.87;;
75386;SDS011;63966;47.914;22.266;2023-04-25T13:29:34;5.35;;;2.17;;
75386;SDS011;63966;47.914;22.266;2023-04-25T13:32:38;6.03;;;2.35;;
75386;SDS011;63966;47.914;22.266;2023-04-25T13:35:42;4.38;;;2.25;;
75386;SDS011;63966;47.914;22.266;2023-04-25T13:38:49;5.05;;;2.08;;
75386;SDS011;63966;47.914;22.266;2023-04-25T13:41:52;3.47;;;1.50;;
75386;SDS011;63966;47.914;22.266;2023-04-25T13:44:56;3.35;;;1.63;;
75386;SDS011;63966;47.914;22.266;2023-04-25T13:47:59;4.82;;;2.13;;
75386;SDS011;63966;47.914;22.266;2023-04-25T13:51:03;4.50;;;1.83;;
75386;SDS011;63966;47.914;22.266;2023-04-25T13:54:08;5.13;;;2.30;;
75386;SDS011;63966;47.914;22.266;2023-04-25T13:57:11;8.40;;;3.53;;
75386;SDS011;63966;47.914;22.266;2023-04-25T14:00:15;5.95;;;2.67;;
75386;SDS011;63966;47.914;22.266;2023-04-25T14:03:20;6.85;;;3.50;;
75386;SDS011;63966;47.914;22.266;2023-04-25T14:06:23;5.22;;;2.80;;
75386;SDS011;63966;47.914;22.266;2023-04-25T14:09:27;4.18;;;2.40;;
75386;SDS011;63966;47.914;22.266;2023-04-25T14:12:31;4.07;;;1.80;;
75386;SDS011;63966;47.914;22.266;2023-04-25T14:15:35;5.88;;;2.35;;
75386;SDS011;63966;47.914;22.266;2023-04-25T14:18:39;6.75;;;3.28;;
75386;SDS011;63966;47.914;22.266;2023-04-25T14:21:43;6.13;;;2.90;;
75386;SDS011;63966;47.914;22.266;2023-04-25T14:24:47;5.82;;;2.95;;
75386;SDS011;63966;47.914;22.266;2023-04-25T14:27:50;3.60;;;1.80;;
75386;SDS011;63966;47.914;22.266;2023-04-25T14:30:53;7.15;;;2.20;;
75386;SDS011;63966;47.914;22.266;2023-04-25T14:33:57;8.52;;;4.25;;
75386;SDS011;63966;47.914;22.266;2023-04-25T14:37:01;6.50;;;2.67;;
75386;SDS011;63966;47.914;22.266;2023-04-25T14:40:04;4.38;;;2.40;;
75386;SDS011;63966;47.914;22.266;2023-04-25T14:43:13;4.07;;;1.90;;
75386;SDS011;63966;47.914;22.266;2023-04-25T14:46:16;5.07;;;1.90;;
75386;SDS011;63966;47.914;22.266;2023-04-25T14:49:20;3.45;;;1.75;;
75386;SDS011;63966;47.914;22.266;2023-04-25T14:52:24;3.20;;;1.77;;
75386;SDS011;63966;47.914;22.266;2023-04-25T14:55:28;4.47;;;1.95;;
75386;SDS011;63966;47.914;22.266;2023-04-25T14:58:31;4.77;;;1.73;;
75386;SDS011;63966;47.914;22.266;2023-04-25T15:01:35;3.55;;;1.60;;
75386;SDS011;63966;47.914;22.266;2023-04-25T15:04:39;6.28;;;1.88;;
75386;SDS011;63966;47.914;22.266;2023-04-25T15:07:43;4.15;;;2.10;;
75386;SDS011;63966;47.914;22.266;2023-04-25T15:10:47;4.85;;;1.60;;
75386;SDS011;63966;47.914;22.266;2023-04-25T15:13:50;2.83;;;1.20;;
75386;SDS011;63966;47.914;22.266;2023-04-25T15:16:55;3.97;;;1.30;;
75386;SDS011;63966;47.914;22.266;2023-04-25T15:19:59;3.90;;;1.40;;
75386;SDS011;63966;47.914;22.266;2023-04-25T15:23:03;4.22;;;1.20;;
75386;SDS011;63966;47.914;22.266;2023-04-25T15:26:07;2.55;;;1.10;;
75386;SDS011;63966;47.914;22.266;2023-04-25T15:29:11;5.63;;;1.20;;
75386;SDS011;63966;47.914;22.266;2023-04-25T15:32:15;1.88;;;1.02;;
75386;SDS011;63966;47.914;22.266;2023-04-25T15:35:19;3.55;;;1.45;;
75386;SDS011;63966;47.914;22.266;2023-04-25T15:38:23;2.30;;;1.10;;
75386;SDS011;63966;47.914;22.266;2023-04-25T15:41:27;1.75;;;1.05;;
75386;SDS011;63966;47.914;22.266;2023-04-25T15:44:31;2.00;;;1.00;;
75386;SDS011;63966;47.914;22.266;2023-04-25T15:47:34;3.10;;;1.30;;
75386;SDS011;63966;47.914;22.266;2023-04-25T15:50:39;2.50;;;1.20;;
75386;SDS011;63966;47.914;22.266;2023-04-25T15:53:43;2.85;;;1.40;;
75386;SDS011;63966;47.914;22.266;2023-04-25T15:56:48;3.13;;;1.30;;
75386;SDS011;63966;47.914;22.266;2023-04-25T15:59:51;4.50;;;1.57;;
75386;SDS011;63966;47.914;22.266;2023-04-25T16:02:55;2.35;;;1.20;;
75386;SDS011;63966;47.914;22.266;2023-04-25T16:05:58;3.10;;;1.42;;
75386;SDS011;63966;47.914;22.266;2023-04-25T16:09:02;5.28;;;1.45;;
75386;SDS011;63966;47.914;22.266;2023-04-25T16:12:06;2.85;;;1.42;;
75386;SDS011;63966;47.914;22.266;2023-04-25T16:15:11;2.87;;;1.30;;
75386;SDS011;63966;47.914;22.266;2023-04-25T16:18:15;3.47;;;1.38;;
75386;SDS011;63966;47.914;22.266;2023-04-25T16:21:19;3.22;;;1.40;;
75386;SDS011;63966;47.914;22.266;2023-04-25T16:24:23;5.15;;;1.98;;
75386;SDS011;63966;47.914;22.266;2023-04-25T16:27:26;2.83;;;1.42;;
75386;SDS011;63966;47.914;22.266;2023-04-25T16:30:30;2.60;;;1.30;;
75386;SDS011;63966;47.914;22.266;2023-04-25T16:33:33;2.58;;;1.40;;
75386;SDS011;63966;47.914;22.266;2023-04-25T16:36:37;2.75;;;1.33;;
75386;SDS011;63966;47.914;22.266;2023-04-25T16:39:40;3.25;;;1.65;;
75386;SDS011;63966;47.914;22.266;2023-04-25T16:42:44;2.65;;;1.25;;
75386;SDS011;63966;47.914;22.266;2023-04-25T16:45:47;3.23;;;1.50;;
75386;SDS011;63966;47.914;22.266;2023-04-25T16:48:51;2.95;;;1.33;;
75386;SDS011;63966;47.914;22.266;2023-04-25T16:51:56;2.92;;;1.52;;
75386;SDS011;63966;47.914;22.266;2023-04-25T16:54:59;3.88;;;1.70;;
75386;SDS011;63966;47.914;22.266;2023-04-25T16:58:03;4.50;;;1.98;;
75386;SDS011;63966;47.914;22.266;2023-04-25T17:01:11;5.57;;;1.90;;
75386;SDS011;63966;47.914;22.266;2023-04-25T17:04:17;5.10;;;2.35;;
75386;SDS011;63966;47.914;22.266;2023-04-25T17:07:21;5.60;;;2.33;;
75386;SDS011;63966;47.914;22.266;2023-04-25T17:10:25;4.43;;;1.90;;
75386;SDS011;63966;47.914;22.266;2023-04-25T17:13:29;4.38;;;2.30;;
75386;SDS011;63966;47.914;22.266;2023-04-25T17:16:34;3.87;;;2.03;;
75386;SDS011;63966;47.914;22.266;2023-04-25T17:19:39;4.95;;;2.20;;
75386;SDS011;63966;47.914;22.266;2023-04-25T17:22:43;3.30;;;1.55;;
75386;SDS011;63966;47.914;22.266;2023-04-25T17:25:46;3.58;;;1.85;;
75386;SDS011;63966;47.914;22.266;2023-04-25T17:28:50;5.00;;;2.20;;
75386;SDS011;63966;47.914;22.266;2023-04-25T17:31:55;4.37;;;2.00;;
75386;SDS011;63966;47.914;22.266;2023-04-25T17:34:59;4.18;;;1.85;;
75386;SDS011;63966;47.914;22.266;2023-04-25T17:38:02;5.53;;;2.58;;
75386;SDS011;63966;47.914;22.266;2023-04-25T17:41:07;4.10;;;2.00;;
75386;SDS011;63966;47.914;22.266;2023-04-25T17:44:12;3.50;;;1.50;;
75386;SDS011;63966;47.914;22.266;2023-04-25T17:47:15;4.97;;;2.30;;
75386;SDS011;63966;47.914;22.266;2023-04-25T17:50:19;3.40;;;1.70;;
75386;SDS011;63966;47.914;22.266;2023-04-25T17:53:23;3.55;;;1.55;;
75386;SDS011;63966;47.914;22.266;2023-04-25T17:56:26;4.25;;;1.77;;
75386;SDS011;63966;47.914;22.266;2023-04-25T17:59:30;3.22;;;1.63;;
75386;SDS011;63966;47.914;22.266;2023-04-25T18:02:34;4.10;;;1.60;;
75386;SDS011;63966;47.914;22.266;2023-04-25T18:05:38;5.75;;;2.00;;
75386;SDS011;63966;47.914;22.266;2023-04-25T18:08:42;5.22;;;1.75;;
75386;SDS011;63966;47.914;22.266;2023-04-25T18:11:46;3.63;;;1.92;;
75386;SDS011;63966;47.914;22.266;2023-04-25T18:14:51;3.88;;;1.65;;
75386;SDS011;63966;47.914;22.266;2023-04-25T18:17:55;3.60;;;1.70;;
75386;SDS011;63966;47.914;22.266;2023-04-25T18:20:59;4.45;;;2.22;;
75386;SDS011;63966;47.914;22.266;2023-04-25T18:24:07;5.03;;;1.88;;
75386;SDS011;63966;47.914;22.266;2023-04-25T18:27:11;4.43;;;1.70;;
75386;SDS011;63966;47.914;22.266;2023-04-25T18:30:15;2.47;;;1.40;;
75386;SDS011;63966;47.914;22.266;2023-04-25T18:33:20;2.83;;;1.23;;
75386;SDS011;63966;47.914;22.266;2023-04-25T18:36:24;4.18;;;1.75;;
75386;SDS011;63966;47.914;22.266;2023-04-25T18:39:28;3.65;;;1.60;;
75386;SDS011;63966;47.914;22.266;2023-04-25T18:42:32;3.70;;;1.73;;
75386;SDS011;63966;47.914;22.266;2023-04-25T18:45:36;2.88;;;1.40;;
75386;SDS011;63966;47.914;22.266;2023-04-25T18:48:43;3.70;;;1.57;;
75386;SDS011;63966;47.914;22.266;2023-04-25T18:51:47;5.85;;;1.80;;
75386;SDS011;63966;47.914;22.266;2023-04-25T18:54:51;3.35;;;1.75;;
75386;SDS011;63966;47.914;22.266;2023-04-25T18:57:55;3.30;;;1.42;;
75386;SDS011;63966;47.914;22.266;2023-04-25T19:00:59;2.58;;;1.20;;
75386;SDS011;63966;47.914;22.266;2023-04-25T19:04:03;3.40;;;1.50;;
75386;SDS011;63966;47.914;22.266;2023-04-25T19:07:08;3.20;;;1.33;;
75386;SDS011;63966;47.914;22.266;2023-04-25T19:10:12;2.85;;;1.40;;
75386;SDS011;63966;47.914;22.266;2023-04-25T19:13:16;6.93;;;1.40;;
75386;SDS011;63966;47.914;22.266;2023-04-25T19:16:19;2.67;;;1.50;;
75386;SDS011;63966;47.914;22.266;2023-04-25T19:19:24;3.17;;;1.20;;
75386;SDS011;63966;47.914;22.266;2023-04-25T19:22:28;3.90;;;1.50;;
75386;SDS011;63966;47.914;22.266;2023-04-25T19:25:32;3.15;;;1.48;;
75386;SDS011;63966;47.914;22.266;2023-04-25T19:28:37;2.28;;;1.33;;
75386;SDS011;63966;47.914;22.266;2023-04-25T19:31:42;2.58;;;1.20;;
75386;SDS011;63966;47.914;22.266;2023-04-25T19:34:46;2.80;;;1.37;;
75386;SDS011;63966;47.914;22.266;2023-04-25T19:37:50;3.63;;;1.38;;
75386;SDS011;63966;47.914;22.266;2023-04-25T19:40:54;4.25;;;1.27;;
75386;SDS011;63966;47.914;22.266;2023-04-25T19:43:59;2.65;;;1.30;;
75386;SDS011;63966;47.914;22.266;2023-04-25T19:47:09;5.05;;;2.10;;
75386;SDS011;63966;47.914;22.266;2023-04-25T19:50:13;5.93;;;1.63;;
75386;SDS011;63966;47.914;22.266;2023-04-25T19:53:16;3.20;;;1.23;;
75386;SDS011;63966;47.914;22.266;2023-04-25T19:56:21;3.72;;;1.65;;
75386;SDS011;63966;47.914;22.266;2023-04-25T19:59:25;2.33;;;1.23;;
75386;SDS011;63966;47.914;22.266;2023-04-25T20:02:29;4.97;;;1.75;;
75386;SDS011;63966;47.914;22.266;2023-04-25T20:05:37;7.50;;;2.03;;
75386;SDS011;63966;47.914;22.266;2023-04-25T20:08:41;4.88;;;1.70;;
75386;SDS011;63966;47.914;22.266;2023-04-25T20:11:45;5.05;;;1.90;;
75386;SDS011;63966;47.914;22.266;2023-04-25T20:14:49;3.47;;;1.60;;